MYX322 EETN-EVRA
Flight info
| Callsign | MYX322 |
|---|---|
| Flight time | 0h 36m |
| Altitude | 18000 |
| Route | ORTAX DCT LUTAL |
| Aircraft | A320/M-SDE3FGHIRWY/LB1 |
Departure
| Time | 2026-04-29 19:58 |
|---|---|
| Airport | Lennart Meri Tallinn Airport (EETN) |
Arrival
| Time | 2026-04-29 20:34 |
|---|---|
| Airport | Riga International Airport (EVRA) |
| Time | Latitude | Longitude | Altitude | Speed | Heading |
|---|---|---|---|---|---|
| 2026-04-29 19:38 | 59.41574 | 24.80207 | 139 ft | 0 kts | 1° |
| 2026-04-29 19:49 | 59.41558 | 24.80206 | 139 ft | 2 kts | 1° |
| 2026-04-29 19:50 | 59.41542 | 24.80205 | 139 ft | 2 kts | 6° |
| 2026-04-29 19:50 | 59.41533 | 24.80201 | 139 ft | 1 kts | 60° |
| 2026-04-29 19:50 | 59.41528 | 24.80185 | 139 ft | 2 kts | 79° |
| 2026-04-29 19:50 | 59.41527 | 24.80174 | 139 ft | 0 kts | 92° |
| 2026-04-29 19:51 | 59.41527 | 24.80175 | 139 ft | 0 kts | 92° |
| 2026-04-29 19:53 | 59.41527 | 24.80247 | 139 ft | 10 kts | 89° |
| 2026-04-29 19:53 | 59.41523 | 24.80435 | 139 ft | 16 kts | 97° |
| 2026-04-29 19:53 | 59.41507 | 24.80669 | 139 ft | 18 kts | 90° |
| 2026-04-29 19:53 | 59.41505 | 24.80932 | 139 ft | 21 kts | 90° |
| 2026-04-29 19:54 | 59.41504 | 24.81533 | 139 ft | 23 kts | 90° |
| 2026-04-29 19:54 | 59.41503 | 24.81853 | 139 ft | 24 kts | 90° |
| 2026-04-29 19:54 | 59.41503 | 24.82191 | 139 ft | 25 kts | 91° |
| 2026-04-29 19:55 | 59.41503 | 24.82543 | 140 ft | 26 kts | 89° |
| 2026-04-29 19:55 | 59.41501 | 24.82907 | 140 ft | 27 kts | 90° |
| 2026-04-29 19:55 | 59.41501 | 24.83159 | 140 ft | 28 kts | 90° |
| 2026-04-29 19:55 | 59.41500 | 24.83542 | 140 ft | 28 kts | 90° |
| 2026-04-29 19:56 | 59.41498 | 24.84061 | 140 ft | 29 kts | 90° |
| 2026-04-29 19:56 | 59.41497 | 24.84464 | 140 ft | 30 kts | 90° |
| 2026-04-29 19:56 | 59.41495 | 24.84851 | 140 ft | 26 kts | 90° |
| 2026-04-29 19:56 | 59.41431 | 24.85001 | 141 ft | 12 kts | 177° |
| 2026-04-29 19:57 | 59.41418 | 24.85002 | 141 ft | 0 kts | 179° |
| 2026-04-29 19:57 | 59.41417 | 24.85002 | 141 ft | 1 kts | 179° |
| 2026-04-29 19:57 | 59.41336 | 24.84982 | 140 ft | 17 kts | 216° |
| 2026-04-29 19:57 | 59.41323 | 24.84748 | 140 ft | 21 kts | 271° |
| 2026-04-29 19:58 | 59.41324 | 24.84046 | 139 ft | 85 kts | 270° |
| 2026-04-29 19:58 | 59.41327 | 24.82469 | 138 ft | 148 kts | 270° |
| 2026-04-29 19:58 | 59.41331 | 24.80103 | 388 ft | 185 kts | 270° |
| 2026-04-29 19:58 | 59.41337 | 24.78409 | 1034 ft | 183 kts | 270° |
| 2026-04-29 19:59 | 59.41196 | 24.75890 | 1790 ft | 194 kts | 246° |
| 2026-04-29 19:59 | 59.40236 | 24.73909 | 2071 ft | 217 kts | 209° |
| 2026-04-29 19:59 | 59.38770 | 24.72679 | 2415 ft | 242 kts | 199° |
| 2026-04-29 19:59 | 59.36548 | 24.71294 | 3210 ft | 259 kts | 198° |
| 2026-04-29 20:00 | 59.35373 | 24.70566 | 3790 ft | 262 kts | 198° |
| 2026-04-29 20:00 | 59.33632 | 24.69429 | 4639 ft | 266 kts | 199° |
| 2026-04-29 20:00 | 59.31878 | 24.68205 | 5492 ft | 269 kts | 200° |
| 2026-04-29 20:00 | 59.30116 | 24.66907 | 6322 ft | 273 kts | 201° |
| 2026-04-29 20:01 | 59.28360 | 24.65574 | 7125 ft | 276 kts | 202° |
| 2026-04-29 20:01 | 59.26565 | 24.64190 | 7931 ft | 279 kts | 202° |
| 2026-04-29 20:01 | 59.24751 | 24.62780 | 8714 ft | 282 kts | 202° |
| 2026-04-29 20:01 | 59.22915 | 24.61350 | 9482 ft | 286 kts | 202° |
| 2026-04-29 20:02 | 59.20391 | 24.59395 | 10178 ft | 304 kts | 202° |
| 2026-04-29 20:02 | 59.19054 | 24.58361 | 10306 ft | 320 kts | 202° |
| 2026-04-29 20:02 | 59.16922 | 24.56714 | 10656 ft | 336 kts | 202° |
| 2026-04-29 20:02 | 59.15444 | 24.55575 | 11081 ft | 340 kts | 202° |
| 2026-04-29 20:03 | 59.12505 | 24.53306 | 11991 ft | 345 kts | 202° |
| 2026-04-29 20:03 | 59.10261 | 24.51572 | 12670 ft | 349 kts | 202° |
| 2026-04-29 20:03 | 59.07989 | 24.49822 | 13339 ft | 352 kts | 202° |
| 2026-04-29 20:03 | 59.05697 | 24.48058 | 13985 ft | 356 kts | 202° |
| 2026-04-29 20:04 | 59.03383 | 24.46281 | 14612 ft | 359 kts | 202° |
| 2026-04-29 20:04 | 59.01045 | 24.44490 | 15225 ft | 363 kts | 202° |
| 2026-04-29 20:04 | 58.98689 | 24.42692 | 15822 ft | 366 kts | 201° |
| 2026-04-29 20:04 | 58.96306 | 24.40879 | 16408 ft | 369 kts | 201° |
| 2026-04-29 20:05 | 58.93910 | 24.39057 | 16978 ft | 372 kts | 201° |
| 2026-04-29 20:05 | 58.91489 | 24.37215 | 17538 ft | 375 kts | 201° |
| 2026-04-29 20:05 | 58.89047 | 24.35355 | 17908 ft | 378 kts | 201° |
| 2026-04-29 20:05 | 58.86598 | 24.33494 | 17996 ft | 379 kts | 201° |
| 2026-04-29 20:06 | 58.84095 | 24.31877 | 18012 ft | 380 kts | 194° |
| 2026-04-29 20:06 | 58.81552 | 24.30760 | 18013 ft | 380 kts | 193° |
| 2026-04-29 20:06 | 58.78976 | 24.29633 | 18002 ft | 380 kts | 193° |
| 2026-04-29 20:06 | 58.76396 | 24.28501 | 18013 ft | 380 kts | 193° |
| 2026-04-29 20:07 | 58.73819 | 24.27368 | 18007 ft | 380 kts | 193° |
| 2026-04-29 20:07 | 58.71235 | 24.26231 | 18013 ft | 380 kts | 193° |
| 2026-04-29 20:07 | 58.68659 | 24.25098 | 18008 ft | 380 kts | 193° |
| 2026-04-29 20:07 | 58.66078 | 24.23969 | 18013 ft | 380 kts | 193° |
| 2026-04-29 20:08 | 58.63501 | 24.22843 | 18010 ft | 380 kts | 193° |
| 2026-04-29 20:08 | 58.61760 | 24.22082 | 18014 ft | 380 kts | 193° |
| 2026-04-29 20:08 | 58.58342 | 24.20592 | 18011 ft | 380 kts | 193° |
| 2026-04-29 20:08 | 58.55766 | 24.19471 | 18004 ft | 380 kts | 193° |
| 2026-04-29 20:09 | 58.53183 | 24.18351 | 18012 ft | 380 kts | 193° |
| 2026-04-29 20:09 | 58.50599 | 24.17236 | 18019 ft | 380 kts | 193° |
| 2026-04-29 20:09 | 58.48022 | 24.16127 | 18015 ft | 380 kts | 193° |
| 2026-04-29 20:09 | 58.45430 | 24.15017 | 18005 ft | 380 kts | 193° |
| 2026-04-29 20:10 | 58.42848 | 24.13912 | 18019 ft | 380 kts | 193° |
| 2026-04-29 20:10 | 58.40266 | 24.12806 | 18023 ft | 380 kts | 193° |
| 2026-04-29 20:10 | 58.37680 | 24.11692 | 18024 ft | 380 kts | 193° |
| 2026-04-29 20:10 | 58.35100 | 24.10582 | 18013 ft | 380 kts | 193° |
| 2026-04-29 20:11 | 58.32517 | 24.09472 | 18022 ft | 380 kts | 193° |
| 2026-04-29 20:11 | 58.29932 | 24.08359 | 18025 ft | 380 kts | 193° |
| 2026-04-29 20:11 | 58.27350 | 24.07251 | 18014 ft | 380 kts | 193° |
| 2026-04-29 20:11 | 58.24769 | 24.06152 | 18011 ft | 380 kts | 193° |
| 2026-04-29 20:12 | 58.22219 | 24.05072 | 18007 ft | 380 kts | 193° |
| 2026-04-29 20:12 | 58.19638 | 24.03981 | 18016 ft | 380 kts | 193° |
| 2026-04-29 20:12 | 58.17055 | 24.02890 | 18019 ft | 380 kts | 193° |
| 2026-04-29 20:12 | 58.14477 | 24.01799 | 18016 ft | 380 kts | 193° |
| 2026-04-29 20:13 | 58.11893 | 24.00703 | 18024 ft | 380 kts | 193° |
| 2026-04-29 20:13 | 58.09313 | 23.99610 | 18018 ft | 380 kts | 193° |
| 2026-04-29 20:13 | 58.06735 | 23.98519 | 18024 ft | 380 kts | 193° |
| 2026-04-29 20:13 | 58.04156 | 23.97430 | 18020 ft | 380 kts | 193° |
| 2026-04-29 20:14 | 58.01577 | 23.96342 | 18019 ft | 380 kts | 193° |
| 2026-04-29 20:14 | 57.98997 | 23.95257 | 18023 ft | 380 kts | 193° |
| 2026-04-29 20:14 | 57.96416 | 23.94177 | 18020 ft | 380 kts | 193° |
| 2026-04-29 20:14 | 57.93835 | 23.93100 | 18023 ft | 380 kts | 193° |
| 2026-04-29 20:15 | 57.91254 | 23.92043 | 18023 ft | 380 kts | 190° |
| 2026-04-29 20:15 | 57.88622 | 23.91584 | 18023 ft | 380 kts | 180° |
| 2026-04-29 20:15 | 57.85979 | 23.91767 | 18017 ft | 380 kts | 178° |
| 2026-04-29 20:15 | 57.83337 | 23.91980 | 18020 ft | 380 kts | 178° |
| 2026-04-29 20:16 | 57.80690 | 23.92192 | 18016 ft | 381 kts | 178° |
| 2026-04-29 20:16 | 57.78043 | 23.92398 | 18010 ft | 381 kts | 178° |
| 2026-04-29 20:16 | 57.75388 | 23.92601 | 18018 ft | 381 kts | 178° |
| 2026-04-29 20:16 | 57.72741 | 23.92801 | 18023 ft | 379 kts | 178° |
| 2026-04-29 20:17 | 57.70159 | 23.92998 | 17947 ft | 365 kts | 178° |
| 2026-04-29 20:17 | 57.67663 | 23.93191 | 17754 ft | 355 kts | 178° |
| 2026-04-29 20:17 | 57.65209 | 23.93385 | 17398 ft | 351 kts | 178° |
| 2026-04-29 20:17 | 57.62781 | 23.93580 | 16999 ft | 348 kts | 178° |
| 2026-04-29 20:18 | 57.60373 | 23.93376 | 16589 ft | 345 kts | 189° |
| 2026-04-29 20:18 | 57.58007 | 23.92681 | 16187 ft | 343 kts | 189° |
| 2026-04-29 20:18 | 57.55654 | 23.91986 | 15794 ft | 341 kts | 189° |
| 2026-04-29 20:18 | 57.53315 | 23.91294 | 15399 ft | 339 kts | 189° |
| 2026-04-29 20:19 | 57.50986 | 23.90606 | 15009 ft | 337 kts | 189° |
| 2026-04-29 20:19 | 57.48676 | 23.89929 | 14609 ft | 335 kts | 189° |
| 2026-04-29 20:19 | 57.46406 | 23.89273 | 14474 ft | 334 kts | 189° |
| 2026-04-29 20:19 | 57.44106 | 23.88611 | 14473 ft | 335 kts | 189° |
| 2026-04-29 20:20 | 57.41807 | 23.87948 | 14241 ft | 333 kts | 189° |
| 2026-04-29 20:20 | 57.39524 | 23.87285 | 13814 ft | 331 kts | 189° |
| 2026-04-29 20:20 | 57.37250 | 23.86624 | 13431 ft | 330 kts | 189° |
| 2026-04-29 20:20 | 57.34995 | 23.85968 | 13025 ft | 328 kts | 189° |
| 2026-04-29 20:21 | 57.32749 | 23.85315 | 12632 ft | 326 kts | 189° |
| 2026-04-29 20:21 | 57.30515 | 23.84666 | 12230 ft | 324 kts | 189° |
| 2026-04-29 20:21 | 57.28299 | 23.84027 | 11826 ft | 322 kts | 189° |
| 2026-04-29 20:21 | 57.26091 | 23.83391 | 11424 ft | 320 kts | 189° |
| 2026-04-29 20:22 | 57.23902 | 23.82763 | 11094 ft | 315 kts | 189° |
| 2026-04-29 20:22 | 57.21772 | 23.82157 | 10968 ft | 304 kts | 189° |
| 2026-04-29 20:22 | 57.19716 | 23.81573 | 10815 ft | 295 kts | 189° |
| 2026-04-29 20:22 | 57.17707 | 23.80997 | 10525 ft | 290 kts | 189° |
| 2026-04-29 20:23 | 57.15734 | 23.80430 | 10145 ft | 279 kts | 189° |
| 2026-04-29 20:23 | 57.13879 | 23.79900 | 9940 ft | 263 kts | 189° |
| 2026-04-29 20:23 | 57.12095 | 23.79391 | 9482 ft | 258 kts | 189° |
| 2026-04-29 20:23 | 57.10328 | 23.78885 | 8966 ft | 255 kts | 189° |
| 2026-04-29 20:24 | 57.08580 | 23.78389 | 8442 ft | 253 kts | 189° |
| 2026-04-29 20:24 | 57.06843 | 23.77897 | 7923 ft | 251 kts | 189° |
| 2026-04-29 20:24 | 57.05118 | 23.77496 | 7402 ft | 250 kts | 181° |
| 2026-04-29 20:24 | 57.03386 | 23.77471 | 6882 ft | 248 kts | 181° |
| 2026-04-29 20:25 | 57.01670 | 23.77451 | 6366 ft | 246 kts | 181° |
| 2026-04-29 20:25 | 56.99963 | 23.77428 | 5852 ft | 244 kts | 181° |
| 2026-04-29 20:25 | 56.98269 | 23.77403 | 5344 ft | 242 kts | 181° |
| 2026-04-29 20:25 | 56.96589 | 23.77377 | 4835 ft | 241 kts | 181° |
| 2026-04-29 20:26 | 56.94920 | 23.77352 | 4362 ft | 240 kts | 181° |
| 2026-04-29 20:26 | 56.93311 | 23.77326 | 4265 ft | 222 kts | 181° |
| 2026-04-29 20:26 | 56.91818 | 23.77304 | 4131 ft | 207 kts | 181° |
| 2026-04-29 20:26 | 56.90442 | 23.77284 | 3987 ft | 195 kts | 181° |
| 2026-04-29 20:27 | 56.89107 | 23.77270 | 3738 ft | 190 kts | 181° |
| 2026-04-29 20:27 | 56.88216 | 23.77266 | 3533 ft | 189 kts | 181° |
| 2026-04-29 20:27 | 56.86477 | 23.77258 | 3123 ft | 188 kts | 181° |
| 2026-04-29 20:27 | 56.85170 | 23.77250 | 2821 ft | 187 kts | 181° |
| 2026-04-29 20:28 | 56.83868 | 23.77242 | 2514 ft | 187 kts | 181° |
| 2026-04-29 20:28 | 56.82572 | 23.77263 | 2218 ft | 186 kts | 175° |
| 2026-04-29 20:28 | 56.81306 | 23.77675 | 2136 ft | 185 kts | 169° |
| 2026-04-29 20:28 | 56.80036 | 23.78133 | 2138 ft | 186 kts | 169° |
| 2026-04-29 20:29 | 56.78763 | 23.78587 | 2138 ft | 186 kts | 169° |
| 2026-04-29 20:29 | 56.77492 | 23.79036 | 2138 ft | 186 kts | 169° |
| 2026-04-29 20:29 | 56.76269 | 23.79784 | 2136 ft | 187 kts | 147° |
| 2026-04-29 20:29 | 56.75433 | 23.81554 | 2137 ft | 187 kts | 113° |
| 2026-04-29 20:30 | 56.75275 | 23.83880 | 2138 ft | 188 kts | 78° |
| 2026-04-29 20:30 | 56.75855 | 23.85970 | 2140 ft | 187 kts | 46° |
| 2026-04-29 20:30 | 56.76752 | 23.87634 | 2138 ft | 187 kts | 45° |
| 2026-04-29 20:30 | 56.77680 | 23.89345 | 2139 ft | 187 kts | 45° |
| 2026-04-29 20:31 | 56.78548 | 23.90953 | 2129 ft | 171 kts | 45° |
| 2026-04-29 20:31 | 56.79347 | 23.92429 | 2139 ft | 158 kts | 45° |
| 2026-04-29 20:31 | 56.80098 | 23.93820 | 2137 ft | 151 kts | 45° |
| 2026-04-29 20:31 | 56.80922 | 23.94984 | 1983 ft | 149 kts | 24° |
| 2026-04-29 20:32 | 56.81910 | 23.95404 | 1782 ft | 146 kts | 4° |
| 2026-04-29 20:32 | 56.82917 | 23.95566 | 1584 ft | 145 kts | 4° |
| 2026-04-29 20:32 | 56.83923 | 23.95731 | 1386 ft | 145 kts | 4° |
| 2026-04-29 20:32 | 56.84585 | 23.95839 | 1262 ft | 144 kts | 4° |
| 2026-04-29 20:33 | 56.85921 | 23.96058 | 1006 ft | 144 kts | 4° |
| 2026-04-29 20:33 | 56.86915 | 23.96222 | 814 ft | 143 kts | 4° |
| 2026-04-29 20:33 | 56.87909 | 23.96384 | 633 ft | 143 kts | 4° |
| 2026-04-29 20:33 | 56.88898 | 23.96544 | 420 ft | 143 kts | 4° |
| 2026-04-29 20:34 | 56.89885 | 23.96696 | 237 ft | 142 kts | 5° |
| 2026-04-29 20:34 | 56.90866 | 23.96860 | 54 ft | 137 kts | 5° |
| 2026-04-29 20:34 | 56.91700 | 23.97013 | 36 ft | 92 kts | 6° |
| 2026-04-29 20:34 | 56.92076 | 23.97074 | 37 ft | 44 kts | 5° |
| 2026-04-29 20:35 | 56.92307 | 23.97122 | 38 ft | 24 kts | 15° |
| 2026-04-29 20:35 | 56.92450 | 23.97237 | 35 ft | 21 kts | 33° |
| 2026-04-29 20:35 | 56.92519 | 23.97325 | 34 ft | 11 kts | 34° |
| 2026-04-29 20:35 | 56.92575 | 23.97398 | 34 ft | 9 kts | 36° |
| 2026-04-29 20:36 | 56.92613 | 23.97483 | 35 ft | 10 kts | 78° |
| 2026-04-29 20:36 | 56.92554 | 23.97543 | 35 ft | 14 kts | 178° |
| 2026-04-29 20:36 | 56.92432 | 23.97522 | 35 ft | 16 kts | 184° |
| 2026-04-29 20:36 | 56.92389 | 23.97657 | 35 ft | 8 kts | 94° |
| 2026-04-29 20:37 | 56.92385 | 23.97754 | 35 ft | 4 kts | 94° |
| 2026-04-29 20:37 | 56.92400 | 23.97780 | 33 ft | 5 kts | 8° |
| 2026-04-29 20:37 | 56.92444 | 23.97786 | 35 ft | 0 kts | 4° |